sensor_id;sensor_type;location;lat;lon;timestamp;P1;durP1;ratioP1;P2;durP2;ratioP2
1140;SDS011;559;48.628;8.924;2022-12-18T00:01:46;41.25;;;32.58;;
1140;SDS011;559;48.628;8.924;2022-12-18T00:04:15;35.05;;;27.63;;
1140;SDS011;559;48.628;8.924;2022-12-18T00:06:46;41.47;;;30.35;;
1140;SDS011;559;48.628;8.924;2022-12-18T00:09:12;44.42;;;31.27;;
1140;SDS011;559;48.628;8.924;2022-12-18T00:11:39;48.13;;;37.70;;
1140;SDS011;559;48.628;8.924;2022-12-18T00:14:05;53.80;;;34.65;;
1140;SDS011;559;48.628;8.924;2022-12-18T00:16:32;41.45;;;28.58;;
1140;SDS011;559;48.628;8.924;2022-12-18T00:19:02;34.50;;;29.63;;
1140;SDS011;559;48.628;8.924;2022-12-18T00:21:29;41.80;;;29.45;;
1140;SDS011;559;48.628;8.924;2022-12-18T00:23:58;33.92;;;30.30;;
1140;SDS011;559;48.628;8.924;2022-12-18T00:26:25;39.70;;;28.38;;
1140;SDS011;559;48.628;8.924;2022-12-18T00:28:53;32.65;;;28.75;;
1140;SDS011;559;48.628;8.924;2022-12-18T00:31:22;41.88;;;29.50;;
1140;SDS011;559;48.628;8.924;2022-12-18T00:33:49;41.95;;;27.50;;
1140;SDS011;559;48.628;8.924;2022-12-18T00:36:17;39.47;;;29.60;;
1140;SDS011;559;48.628;8.924;2022-12-18T00:38:44;37.15;;;30.38;;
1140;SDS011;559;48.628;8.924;2022-12-18T00:41:13;44.47;;;31.65;;
1140;SDS011;559;48.628;8.924;2022-12-18T00:44:01;32.92;;;29.33;;
1140;SDS011;559;48.628;8.924;2022-12-18T00:46:26;40.30;;;31.00;;
1140;SDS011;559;48.628;8.924;2022-12-18T00:48:53;36.70;;;29.65;;
1140;SDS011;559;48.628;8.924;2022-12-18T00:51:20;33.72;;;30.27;;
1140;SDS011;559;48.628;8.924;2022-12-18T00:53:46;33.20;;;29.48;;
1140;SDS011;559;48.628;8.924;2022-12-18T00:56:14;36.85;;;29.92;;
1140;SDS011;559;48.628;8.924;2022-12-18T00:58:40;37.85;;;27.90;;
1140;SDS011;559;48.628;8.924;2022-12-18T01:01:07;32.08;;;26.27;;
1140;SDS011;559;48.628;8.924;2022-12-18T01:03:34;34.05;;;25.85;;
1140;SDS011;559;48.628;8.924;2022-12-18T01:06:04;36.10;;;27.25;;
1140;SDS011;559;48.628;8.924;2022-12-18T01:08:32;35.67;;;26.33;;
1140;SDS011;559;48.628;8.924;2022-12-18T01:10:58;32.15;;;25.20;;
1140;SDS011;559;48.628;8.924;2022-12-18T01:13:26;30.92;;;24.15;;
1140;SDS011;559;48.628;8.924;2022-12-18T01:15:53;38.28;;;27.75;;
1140;SDS011;559;48.628;8.924;2022-12-18T01:18:19;35.70;;;27.15;;
1140;SDS011;559;48.628;8.924;2022-12-18T01:20:45;29.23;;;25.77;;
1140;SDS011;559;48.628;8.924;2022-12-18T01:23:12;32.80;;;27.60;;
1140;SDS011;559;48.628;8.924;2022-12-18T01:25:38;36.90;;;27.63;;
1140;SDS011;559;48.628;8.924;2022-12-18T01:28:05;31.33;;;27.25;;
1140;SDS011;559;48.628;8.924;2022-12-18T01:30:33;29.40;;;26.15;;
1140;SDS011;559;48.628;8.924;2022-12-18T01:32:59;32.47;;;27.27;;
1140;SDS011;559;48.628;8.924;2022-12-18T01:35:26;31.23;;;25.55;;
1140;SDS011;559;48.628;8.924;2022-12-18T01:37:53;29.48;;;24.90;;
1140;SDS011;559;48.628;8.924;2022-12-18T01:40:20;30.95;;;24.98;;
1140;SDS011;559;48.628;8.924;2022-12-18T01:42:49;28.27;;;25.33;;
1140;SDS011;559;48.628;8.924;2022-12-18T01:45:23;29.55;;;25.23;;
1140;SDS011;559;48.628;8.924;2022-12-18T01:47:54;28.30;;;25.08;;
1140;SDS011;559;48.628;8.924;2022-12-18T01:50:22;31.23;;;24.70;;
1140;SDS011;559;48.628;8.924;2022-12-18T01:52:50;27.13;;;24.20;;
1140;SDS011;559;48.628;8.924;2022-12-18T01:55:19;31.60;;;27.88;;
1140;SDS011;559;48.628;8.924;2022-12-18T01:57:47;33.33;;;29.73;;
1140;SDS011;559;48.628;8.924;2022-12-18T02:00:15;31.05;;;25.75;;
1140;SDS011;559;48.628;8.924;2022-12-18T02:02:43;32.35;;;27.88;;
1140;SDS011;559;48.628;8.924;2022-12-18T02:05:13;29.40;;;25.95;;
1140;SDS011;559;48.628;8.924;2022-12-18T02:07:44;31.25;;;27.00;;
1140;SDS011;559;48.628;8.924;2022-12-18T02:10:17;29.33;;;26.50;;
1140;SDS011;559;48.628;8.924;2022-12-18T02:12:48;32.30;;;28.67;;
1140;SDS011;559;48.628;8.924;2022-12-18T02:15:19;28.38;;;25.83;;
1140;SDS011;559;48.628;8.924;2022-12-18T02:17:52;32.05;;;27.83;;
1140;SDS011;559;48.628;8.924;2022-12-18T02:20:23;32.20;;;25.02;;
1140;SDS011;559;48.628;8.924;2022-12-18T02:23:01;32.78;;;29.48;;
1140;SDS011;559;48.628;8.924;2022-12-18T02:25:38;30.67;;;23.42;;
1140;SDS011;559;48.628;8.924;2022-12-18T02:28:12;28.15;;;25.42;;
1140;SDS011;559;48.628;8.924;2022-12-18T02:30:40;36.75;;;28.85;;
1140;SDS011;559;48.628;8.924;2022-12-18T02:33:07;33.03;;;27.17;;
1140;SDS011;559;48.628;8.924;2022-12-18T02:35:34;31.25;;;27.85;;
1140;SDS011;559;48.628;8.924;2022-12-18T02:38:02;29.45;;;26.35;;
1140;SDS011;559;48.628;8.924;2022-12-18T02:40:29;33.42;;;27.25;;
1140;SDS011;559;48.628;8.924;2022-12-18T02:43:01;29.08;;;26.15;;
1140;SDS011;559;48.628;8.924;2022-12-18T02:45:30;31.67;;;28.52;;
1140;SDS011;559;48.628;8.924;2022-12-18T02:47:57;30.05;;;26.83;;
1140;SDS011;559;48.628;8.924;2022-12-18T02:50:25;32.40;;;29.23;;
1140;SDS011;559;48.628;8.924;2022-12-18T02:53:01;28.73;;;26.13;;
1140;SDS011;559;48.628;8.924;2022-12-18T02:55:38;28.05;;;25.17;;
1140;SDS011;559;48.628;8.924;2022-12-18T02:58:12;31.63;;;28.50;;
1140;SDS011;559;48.628;8.924;2022-12-18T03:00:43;31.83;;;28.70;;
1140;SDS011;559;48.628;8.924;2022-12-18T03:03:16;31.98;;;28.88;;
1140;SDS011;559;48.628;8.924;2022-12-18T03:05:47;26.05;;;22.98;;
1140;SDS011;559;48.628;8.924;2022-12-18T03:08:18;26.70;;;24.33;;
1140;SDS011;559;48.628;8.924;2022-12-18T03:10:48;30.13;;;27.23;;
1140;SDS011;559;48.628;8.924;2022-12-18T03:13:17;30.88;;;27.67;;
1140;SDS011;559;48.628;8.924;2022-12-18T03:15:49;35.78;;;32.67;;
1140;SDS011;559;48.628;8.924;2022-12-18T03:18:18;42.15;;;39.03;;
1140;SDS011;559;48.628;8.924;2022-12-18T03:20:47;44.47;;;40.72;;
1140;SDS011;559;48.628;8.924;2022-12-18T03:23:15;48.15;;;44.28;;
1140;SDS011;559;48.628;8.924;2022-12-18T03:25:44;54.50;;;50.28;;
1140;SDS011;559;48.628;8.924;2022-12-18T03:28:12;51.00;;;47.47;;
1140;SDS011;559;48.628;8.924;2022-12-18T03:30:41;52.25;;;48.25;;
1140;SDS011;559;48.628;8.924;2022-12-18T03:33:10;57.97;;;53.38;;
1140;SDS011;559;48.628;8.924;2022-12-18T03:35:39;52.97;;;49.13;;
1140;SDS011;559;48.628;8.924;2022-12-18T03:38:08;56.50;;;51.88;;
1140;SDS011;559;48.628;8.924;2022-12-18T03:40:41;55.00;;;50.63;;
1140;SDS011;559;48.628;8.924;2022-12-18T03:43:13;55.10;;;51.22;;
1140;SDS011;559;48.628;8.924;2022-12-18T03:45:47;59.40;;;54.15;;
1140;SDS011;559;48.628;8.924;2022-12-18T03:48:19;59.42;;;54.50;;
1140;SDS011;559;48.628;8.924;2022-12-18T03:50:48;57.17;;;52.92;;
1140;SDS011;559;48.628;8.924;2022-12-18T03:53:19;55.53;;;51.22;;
1140;SDS011;559;48.628;8.924;2022-12-18T03:55:52;61.75;;;56.35;;
1140;SDS011;559;48.628;8.924;2022-12-18T03:58:19;55.80;;;51.90;;
1140;SDS011;559;48.628;8.924;2022-12-18T04:00:49;58.92;;;54.42;;
1140;SDS011;559;48.628;8.924;2022-12-18T04:03:19;57.85;;;53.20;;
1140;SDS011;559;48.628;8.924;2022-12-18T04:05:46;61.05;;;56.70;;
1140;SDS011;559;48.628;8.924;2022-12-18T04:08:14;60.50;;;55.75;;
1140;SDS011;559;48.628;8.924;2022-12-18T04:10:40;60.90;;;56.03;;
1140;SDS011;559;48.628;8.924;2022-12-18T04:13:07;62.97;;;57.92;;
1140;SDS011;559;48.628;8.924;2022-12-18T04:15:34;61.60;;;56.55;;
1140;SDS011;559;48.628;8.924;2022-12-18T04:18:02;62.53;;;58.00;;
1140;SDS011;559;48.628;8.924;2022-12-18T04:20:30;60.45;;;55.70;;
1140;SDS011;559;48.628;8.924;2022-12-18T04:22:57;60.38;;;55.40;;
1140;SDS011;559;48.628;8.924;2022-12-18T04:25:23;62.40;;;57.40;;
1140;SDS011;559;48.628;8.924;2022-12-18T04:27:50;59.42;;;54.60;;
1140;SDS011;559;48.628;8.924;2022-12-18T04:30:16;61.88;;;57.28;;
1140;SDS011;559;48.628;8.924;2022-12-18T04:32:43;63.75;;;58.78;;
1140;SDS011;559;48.628;8.924;2022-12-18T04:35:09;67.75;;;62.38;;
1140;SDS011;559;48.628;8.924;2022-12-18T04:37:38;63.25;;;58.47;;
1140;SDS011;559;48.628;8.924;2022-12-18T04:40:05;65.18;;;59.08;;
1140;SDS011;559;48.628;8.924;2022-12-18T04:42:32;63.70;;;59.05;;
1140;SDS011;559;48.628;8.924;2022-12-18T04:44:58;70.45;;;64.82;;
1140;SDS011;559;48.628;8.924;2022-12-18T04:47:25;64.45;;;59.45;;
1140;SDS011;559;48.628;8.924;2022-12-18T04:49:51;64.63;;;59.72;;
1140;SDS011;559;48.628;8.924;2022-12-18T04:52:18;69.80;;;63.88;;
1140;SDS011;559;48.628;8.924;2022-12-18T04:54:46;68.93;;;63.75;;
1140;SDS011;559;48.628;8.924;2022-12-18T04:57:12;71.65;;;65.65;;
1140;SDS011;559;48.628;8.924;2022-12-18T04:59:38;64.53;;;59.58;;
1140;SDS011;559;48.628;8.924;2022-12-18T05:02:05;66.32;;;61.03;;
1140;SDS011;559;48.628;8.924;2022-12-18T05:04:31;70.45;;;64.82;;
1140;SDS011;559;48.628;8.924;2022-12-18T05:06:58;67.22;;;61.38;;
1140;SDS011;559;48.628;8.924;2022-12-18T05:09:24;71.43;;;65.78;;
1140;SDS011;559;48.628;8.924;2022-12-18T05:11:52;75.30;;;69.20;;
1140;SDS011;559;48.628;8.924;2022-12-18T05:14:19;68.43;;;62.28;;
1140;SDS011;559;48.628;8.924;2022-12-18T05:16:45;68.65;;;62.80;;
1140;SDS011;559;48.628;8.924;2022-12-18T05:19:12;66.88;;;61.22;;
1140;SDS011;559;48.628;8.924;2022-12-18T05:21:38;71.43;;;65.10;;
1140;SDS011;559;48.628;8.924;2022-12-18T05:24:05;70.68;;;64.07;;
1140;SDS011;559;48.628;8.924;2022-12-18T05:26:32;68.80;;;62.67;;
1140;SDS011;559;48.628;8.924;2022-12-18T05:29:00;70.65;;;64.35;;
1140;SDS011;559;48.628;8.924;2022-12-18T05:31:27;69.32;;;63.78;;
1140;SDS011;559;48.628;8.924;2022-12-18T05:33:53;71.10;;;64.60;;
1140;SDS011;559;48.628;8.924;2022-12-18T05:36:20;67.65;;;61.08;;
1140;SDS011;559;48.628;8.924;2022-12-18T05:38:46;70.70;;;64.65;;
1140;SDS011;559;48.628;8.924;2022-12-18T05:41:13;69.03;;;63.60;;
1140;SDS011;559;48.628;8.924;2022-12-18T05:43:40;69.70;;;64.10;;
1140;SDS011;559;48.628;8.924;2022-12-18T05:46:09;71.00;;;65.35;;
1140;SDS011;559;48.628;8.924;2022-12-18T05:48:37;68.90;;;62.75;;
1140;SDS011;559;48.628;8.924;2022-12-18T05:51:05;64.35;;;58.63;;
1140;SDS011;559;48.628;8.924;2022-12-18T05:53:32;65.18;;;59.25;;
1140;SDS011;559;48.628;8.924;2022-12-18T05:56:00;66.75;;;60.13;;
1140;SDS011;559;48.628;8.924;2022-12-18T05:58:27;65.75;;;60.25;;
1140;SDS011;559;48.628;8.924;2022-12-18T06:00:53;64.80;;;59.90;;
1140;SDS011;559;48.628;8.924;2022-12-18T06:03:21;64.18;;;58.28;;
1140;SDS011;559;48.628;8.924;2022-12-18T06:05:48;67.18;;;59.30;;
1140;SDS011;559;48.628;8.924;2022-12-18T06:08:14;62.47;;;57.40;;
1140;SDS011;559;48.628;8.924;2022-12-18T06:10:41;65.13;;;59.55;;
1140;SDS011;559;48.628;8.924;2022-12-18T06:13:08;69.65;;;63.20;;
1140;SDS011;559;48.628;8.924;2022-12-18T06:15:35;62.58;;;57.28;;
1140;SDS011;559;48.628;8.924;2022-12-18T06:18:02;66.90;;;60.00;;
1140;SDS011;559;48.628;8.924;2022-12-18T06:20:30;67.82;;;60.17;;
1140;SDS011;559;48.628;8.924;2022-12-18T06:22:57;65.78;;;59.22;;
1140;SDS011;559;48.628;8.924;2022-12-18T06:25:23;63.03;;;57.00;;
1140;SDS011;559;48.628;8.924;2022-12-18T06:27:50;70.63;;;56.13;;
1140;SDS011;559;48.628;8.924;2022-12-18T06:30:16;54.78;;;50.15;;
1140;SDS011;559;48.628;8.924;2022-12-18T06:32:43;59.92;;;53.80;;
1140;SDS011;559;48.628;8.924;2022-12-18T06:35:09;58.67;;;53.03;;
1140;SDS011;559;48.628;8.924;2022-12-18T06:37:37;59.17;;;53.38;;
1140;SDS011;559;48.628;8.924;2022-12-18T06:40:04;63.65;;;53.80;;
1140;SDS011;559;48.628;8.924;2022-12-18T06:42:32;57.72;;;52.72;;
1140;SDS011;559;48.628;8.924;2022-12-18T06:44:58;52.42;;;47.10;;
1140;SDS011;559;48.628;8.924;2022-12-18T06:47:24;53.03;;;47.72;;
1140;SDS011;559;48.628;8.924;2022-12-18T06:49:51;58.85;;;50.05;;
1140;SDS011;559;48.628;8.924;2022-12-18T06:52:17;57.13;;;51.42;;
1140;SDS011;559;48.628;8.924;2022-12-18T06:54:45;54.83;;;49.60;;
1140;SDS011;559;48.628;8.924;2022-12-18T06:57:12;56.75;;;51.15;;
1140;SDS011;559;48.628;8.924;2022-12-18T06:59:38;56.58;;;51.00;;
1140;SDS011;559;48.628;8.924;2022-12-18T07:02:05;60.42;;;54.65;;
1140;SDS011;559;48.628;8.924;2022-12-18T07:04:31;58.17;;;52.03;;
1140;SDS011;559;48.628;8.924;2022-12-18T07:06:58;56.20;;;49.85;;
1140;SDS011;559;48.628;8.924;2022-12-18T07:09:24;55.42;;;48.47;;
1140;SDS011;559;48.628;8.924;2022-12-18T07:11:52;54.00;;;48.63;;
1140;SDS011;559;48.628;8.924;2022-12-18T07:14:19;62.70;;;45.25;;
1140;SDS011;559;48.628;8.924;2022-12-18T07:16:45;56.67;;;46.22;;
1140;SDS011;559;48.628;8.924;2022-12-18T07:19:12;55.47;;;46.25;;
1140;SDS011;559;48.628;8.924;2022-12-18T07:21:38;50.50;;;45.55;;
1140;SDS011;559;48.628;8.924;2022-12-18T07:24:05;47.38;;;42.58;;
1140;SDS011;559;48.628;8.924;2022-12-18T07:26:32;50.08;;;46.17;;
1140;SDS011;559;48.628;8.924;2022-12-18T07:29:00;57.40;;;48.00;;
1140;SDS011;559;48.628;8.924;2022-12-18T07:31:26;46.78;;;42.00;;
1140;SDS011;559;48.628;8.924;2022-12-18T07:33:53;52.90;;;42.38;;
1140;SDS011;559;48.628;8.924;2022-12-18T07:36:19;46.97;;;42.75;;
1140;SDS011;559;48.628;8.924;2022-12-18T07:38:49;51.97;;;43.75;;
1140;SDS011;559;48.628;8.924;2022-12-18T07:41:16;46.45;;;41.50;;
1140;SDS011;559;48.628;8.924;2022-12-18T07:43:43;61.60;;;46.67;;
1140;SDS011;559;48.628;8.924;2022-12-18T07:46:11;49.55;;;43.97;;
1140;SDS011;559;48.628;8.924;2022-12-18T07:48:39;46.97;;;41.97;;
1140;SDS011;559;48.628;8.924;2022-12-18T07:51:06;50.45;;;40.63;;
1140;SDS011;559;48.628;8.924;2022-12-18T07:53:33;53.70;;;41.78;;
1140;SDS011;559;48.628;8.924;2022-12-18T07:56:02;44.53;;;39.83;;
1140;SDS011;559;48.628;8.924;2022-12-18T07:58:30;51.38;;;42.38;;
1140;SDS011;559;48.628;8.924;2022-12-18T08:01:01;55.85;;;41.67;;
1140;SDS011;559;48.628;8.924;2022-12-18T08:03:30;45.97;;;37.42;;
1140;SDS011;559;48.628;8.924;2022-12-18T08:05:58;49.72;;;38.83;;
1140;SDS011;559;48.628;8.924;2022-12-18T08:08:28;45.40;;;35.53;;
1140;SDS011;559;48.628;8.924;2022-12-18T08:10:55;48.63;;;42.38;;
1140;SDS011;559;48.628;8.924;2022-12-18T08:13:22;44.85;;;40.30;;
1140;SDS011;559;48.628;8.924;2022-12-18T08:15:54;53.92;;;42.42;;
1140;SDS011;559;48.628;8.924;2022-12-18T08:18:22;50.15;;;42.72;;
1140;SDS011;559;48.628;8.924;2022-12-18T08:20:49;56.90;;;43.95;;
1140;SDS011;559;48.628;8.924;2022-12-18T08:23:16;50.47;;;40.55;;
1140;SDS011;559;48.628;8.924;2022-12-18T08:25:42;53.17;;;42.28;;
1140;SDS011;559;48.628;8.924;2022-12-18T08:28:09;46.20;;;38.55;;
1140;SDS011;559;48.628;8.924;2022-12-18T08:30:36;45.70;;;37.20;;
1140;SDS011;559;48.628;8.924;2022-12-18T08:33:02;54.00;;;38.90;;
1140;SDS011;559;48.628;8.924;2022-12-18T08:35:29;51.83;;;38.63;;
1140;SDS011;559;48.628;8.924;2022-12-18T08:37:57;50.20;;;34.10;;
1140;SDS011;559;48.628;8.924;2022-12-18T08:40:23;59.08;;;39.72;;
1140;SDS011;559;48.628;8.924;2022-12-18T08:42:50;53.80;;;39.20;;
1140;SDS011;559;48.628;8.924;2022-12-18T08:45:34;63.40;;;40.17;;
1140;SDS011;559;48.628;8.924;2022-12-18T08:48:00;40.47;;;32.88;;
1140;SDS011;559;48.628;8.924;2022-12-18T08:50:27;44.72;;;30.40;;
1140;SDS011;559;48.628;8.924;2022-12-18T08:52:53;49.28;;;33.70;;
1140;SDS011;559;48.628;8.924;2022-12-18T08:55:21;46.53;;;32.40;;
1140;SDS011;559;48.628;8.924;2022-12-18T08:57:48;47.83;;;32.47;;
1140;SDS011;559;48.628;8.924;2022-12-18T09:00:15;41.33;;;30.98;;
1140;SDS011;559;48.628;8.924;2022-12-18T09:02:42;46.50;;;31.00;;
1140;SDS011;559;48.628;8.924;2022-12-18T09:05:08;54.10;;;30.88;;
1140;SDS011;559;48.628;8.924;2022-12-18T09:07:35;46.05;;;31.77;;
1140;SDS011;559;48.628;8.924;2022-12-18T09:10:02;47.42;;;33.47;;
1140;SDS011;559;48.628;8.924;2022-12-18T09:12:30;49.72;;;32.45;;
1140;SDS011;559;48.628;8.924;2022-12-18T09:14:56;42.20;;;30.55;;
1140;SDS011;559;48.628;8.924;2022-12-18T09:17:23;44.40;;;33.38;;
1140;SDS011;559;48.628;8.924;2022-12-18T09:19:49;51.20;;;34.00;;
1140;SDS011;559;48.628;8.924;2022-12-18T09:22:16;58.42;;;28.50;;
1140;SDS011;559;48.628;8.924;2022-12-18T09:24:43;56.95;;;33.58;;
1140;SDS011;559;48.628;8.924;2022-12-18T09:27:09;44.40;;;29.65;;
1140;SDS011;559;48.628;8.924;2022-12-18T09:29:37;49.95;;;34.05;;
1140;SDS011;559;48.628;8.924;2022-12-18T09:32:04;62.70;;;36.03;;
1140;SDS011;559;48.628;8.924;2022-12-18T09:34:31;46.47;;;31.35;;
1140;SDS011;559;48.628;8.924;2022-12-18T09:36:57;46.53;;;31.67;;
1140;SDS011;559;48.628;8.924;2022-12-18T09:39:24;49.53;;;28.65;;
1140;SDS011;559;48.628;8.924;2022-12-18T09:41:50;52.42;;;30.70;;
1140;SDS011;559;48.628;8.924;2022-12-18T09:44:20;39.00;;;26.92;;
1140;SDS011;559;48.628;8.924;2022-12-18T09:46:53;46.10;;;30.85;;
1140;SDS011;559;48.628;8.924;2022-12-18T09:49:28;56.45;;;28.85;;
1140;SDS011;559;48.628;8.924;2022-12-18T09:51:57;48.40;;;30.30;;
1140;SDS011;559;48.628;8.924;2022-12-18T09:54:30;39.42;;;28.85;;
1140;SDS011;559;48.628;8.924;2022-12-18T09:56:59;42.35;;;28.05;;
1140;SDS011;559;48.628;8.924;2022-12-18T09:59:26;44.10;;;28.05;;
1140;SDS011;559;48.628;8.924;2022-12-18T10:01:58;45.65;;;28.95;;
1140;SDS011;559;48.628;8.924;2022-12-18T10:04:24;44.78;;;27.25;;
1140;SDS011;559;48.628;8.924;2022-12-18T10:06:55;36.38;;;25.77;;
1140;SDS011;559;48.628;8.924;2022-12-18T10:09:27;45.03;;;32.45;;
1140;SDS011;559;48.628;8.924;2022-12-18T10:11:56;35.03;;;29.33;;
1140;SDS011;559;48.628;8.924;2022-12-18T10:14:30;30.30;;;26.13;;
1140;SDS011;559;48.628;8.924;2022-12-18T10:17:02;46.03;;;30.23;;
1140;SDS011;559;48.628;8.924;2022-12-18T10:19:36;35.00;;;30.00;;
1140;SDS011;559;48.628;8.924;2022-12-18T10:22:10;40.60;;;27.38;;
1140;SDS011;559;48.628;8.924;2022-12-18T10:24:41;45.70;;;31.50;;
1140;SDS011;559;48.628;8.924;2022-12-18T10:27:11;36.95;;;27.25;;
1140;SDS011;559;48.628;8.924;2022-12-18T10:29:40;32.80;;;25.00;;
1140;SDS011;559;48.628;8.924;2022-12-18T10:32:10;36.55;;;28.55;;
1140;SDS011;559;48.628;8.924;2022-12-18T10:34:40;45.72;;;32.30;;
1140;SDS011;559;48.628;8.924;2022-12-18T10:37:09;42.38;;;27.73;;
1140;SDS011;559;48.628;8.924;2022-12-18T10:39:39;40.88;;;28.25;;
1140;SDS011;559;48.628;8.924;2022-12-18T10:42:09;42.20;;;26.55;;
1140;SDS011;559;48.628;8.924;2022-12-18T10:44:36;39.53;;;24.98;;
1140;SDS011;559;48.628;8.924;2022-12-18T10:47:03;38.55;;;25.55;;
1140;SDS011;559;48.628;8.924;2022-12-18T10:49:32;38.95;;;24.92;;
1140;SDS011;559;48.628;8.924;2022-12-18T10:52:07;34.83;;;26.30;;
1140;SDS011;559;48.628;8.924;2022-12-18T10:54:38;40.42;;;25.00;;
1140;SDS011;559;48.628;8.924;2022-12-18T10:57:15;38.60;;;27.80;;
1140;SDS011;559;48.628;8.924;2022-12-18T10:59:49;41.03;;;27.33;;
1140;SDS011;559;48.628;8.924;2022-12-18T11:02:24;35.88;;;26.15;;
1140;SDS011;559;48.628;8.924;2022-12-18T11:04:53;38.53;;;26.90;;
1140;SDS011;559;48.628;8.924;2022-12-18T11:07:20;41.03;;;28.63;;
1140;SDS011;559;48.628;8.924;2022-12-18T11:09:58;45.65;;;26.67;;
1140;SDS011;559;48.628;8.924;2022-12-18T11:12:29;38.25;;;29.45;;
1140;SDS011;559;48.628;8.924;2022-12-18T11:14:56;43.78;;;29.75;;
1140;SDS011;559;48.628;8.924;2022-12-18T11:17:27;41.83;;;29.42;;
1140;SDS011;559;48.628;8.924;2022-12-18T11:19:57;42.60;;;30.48;;
1140;SDS011;559;48.628;8.924;2022-12-18T11:22:25;43.70;;;34.03;;
1140;SDS011;559;48.628;8.924;2022-12-18T11:24:54;41.90;;;37.30;;
1140;SDS011;559;48.628;8.924;2022-12-18T11:27:22;43.50;;;39.10;;
1140;SDS011;559;48.628;8.924;2022-12-18T11:29:50;42.80;;;38.47;;
1140;SDS011;559;48.628;8.924;2022-12-18T11:32:25;44.90;;;40.80;;
1140;SDS011;559;48.628;8.924;2022-12-18T11:34:59;44.70;;;40.20;;
1140;SDS011;559;48.628;8.924;2022-12-18T11:37:29;48.88;;;44.90;;
1140;SDS011;559;48.628;8.924;2022-12-18T11:39:57;49.60;;;44.25;;
1140;SDS011;559;48.628;8.924;2022-12-18T11:42:27;58.13;;;53.47;;
1140;SDS011;559;48.628;8.924;2022-12-18T11:44:59;49.33;;;33.70;;
1140;SDS011;559;48.628;8.924;2022-12-18T11:47:28;38.13;;;31.02;;
1140;SDS011;559;48.628;8.924;2022-12-18T11:50:03;38.15;;;34.25;;
1140;SDS011;559;48.628;8.924;2022-12-18T11:52:35;41.70;;;32.95;;
1140;SDS011;559;48.628;8.924;2022-12-18T11:55:07;45.15;;;40.75;;
1140;SDS011;559;48.628;8.924;2022-12-18T11:57:39;38.22;;;34.33;;
1140;SDS011;559;48.628;8.924;2022-12-18T12:00:11;35.95;;;32.03;;
1140;SDS011;559;48.628;8.924;2022-12-18T12:02:47;40.67;;;29.98;;
1140;SDS011;559;48.628;8.924;2022-12-18T12:05:33;36.40;;;31.67;;
1140;SDS011;559;48.628;8.924;2022-12-18T12:08:06;41.83;;;38.30;;
1140;SDS011;559;48.628;8.924;2022-12-18T12:10:41;49.90;;;44.75;;
1140;SDS011;559;48.628;8.924;2022-12-18T12:13:19;47.60;;;43.15;;
1140;SDS011;559;48.628;8.924;2022-12-18T12:15:53;46.25;;;41.47;;
1140;SDS011;559;48.628;8.924;2022-12-18T12:18:31;39.80;;;36.08;;
1140;SDS011;559;48.628;8.924;2022-12-18T12:21:08;44.10;;;39.50;;
1140;SDS011;559;48.628;8.924;2022-12-18T12:23:39;47.22;;;41.75;;
1140;SDS011;559;48.628;8.924;2022-12-18T12:26:08;46.42;;;41.60;;
1140;SDS011;559;48.628;8.924;2022-12-18T12:28:44;44.92;;;40.70;;
1140;SDS011;559;48.628;8.924;2022-12-18T12:31:20;43.05;;;35.20;;
1140;SDS011;559;48.628;8.924;2022-12-18T12:33:56;34.38;;;28.13;;
1140;SDS011;559;48.628;8.924;2022-12-18T12:36:29;35.53;;;28.02;;
1140;SDS011;559;48.628;8.924;2022-12-18T12:39:00;36.47;;;28.45;;
1140;SDS011;559;48.628;8.924;2022-12-18T12:41:30;45.72;;;31.92;;
1140;SDS011;559;48.628;8.924;2022-12-18T12:44:16;46.83;;;34.55;;
1140;SDS011;559;48.628;8.924;2022-12-18T12:46:45;44.10;;;33.13;;
1140;SDS011;559;48.628;8.924;2022-12-18T12:49:13;37.72;;;33.58;;
1140;SDS011;559;48.628;8.924;2022-12-18T12:51:43;39.92;;;35.92;;
1140;SDS011;559;48.628;8.924;2022-12-18T12:54:11;42.75;;;38.95;;
1140;SDS011;559;48.628;8.924;2022-12-18T12:56:42;44.58;;;40.05;;
1140;SDS011;559;48.628;8.924;2022-12-18T12:59:13;46.60;;;42.30;;
1140;SDS011;559;48.628;8.924;2022-12-18T13:01:47;46.40;;;41.60;;
1140;SDS011;559;48.628;8.924;2022-12-18T13:04:18;45.80;;;41.65;;
1140;SDS011;559;48.628;8.924;2022-12-18T13:06:52;54.90;;;50.20;;
1140;SDS011;559;48.628;8.924;2022-12-18T13:09:22;58.20;;;53.20;;
1140;SDS011;559;48.628;8.924;2022-12-18T13:11:49;107.40;;;89.25;;
1140;SDS011;559;48.628;8.924;2022-12-18T13:14:34;68.35;;;61.90;;
1140;SDS011;559;48.628;8.924;2022-12-18T13:17:14;59.42;;;54.35;;
1140;SDS011;559;48.628;8.924;2022-12-18T13:19:42;58.53;;;54.10;;
1140;SDS011;559;48.628;8.924;2022-12-18T13:22:21;60.17;;;55.35;;
1140;SDS011;559;48.628;8.924;2022-12-18T13:24:48;56.20;;;52.10;;
1140;SDS011;559;48.628;8.924;2022-12-18T13:36:08;66.30;;;61.38;;
1140;SDS011;559;48.628;8.924;2022-12-18T13:38:40;63.35;;;59.75;;
1140;SDS011;559;48.628;8.924;2022-12-18T13:41:21;63.17;;;58.58;;
1140;SDS011;559;48.628;8.924;2022-12-18T13:43:49;60.83;;;56.72;;
1140;SDS011;559;48.628;8.924;2022-12-18T13:46:18;58.92;;;54.72;;
1140;SDS011;559;48.628;8.924;2022-12-18T13:48:50;64.35;;;60.10;;
1140;SDS011;559;48.628;8.924;2022-12-18T13:51:18;59.30;;;55.30;;
1140;SDS011;559;48.628;8.924;2022-12-18T13:53:48;58.67;;;54.67;;
1140;SDS011;559;48.628;8.924;2022-12-18T13:56:16;59.10;;;54.75;;
1140;SDS011;559;48.628;8.924;2022-12-18T13:58:46;54.90;;;50.60;;
1140;SDS011;559;48.628;8.924;2022-12-18T14:01:29;53.60;;;48.78;;
1140;SDS011;559;48.628;8.924;2022-12-18T14:04:08;52.60;;;47.60;;
1140;SDS011;559;48.628;8.924;2022-12-18T14:06:35;50.53;;;45.70;;
1140;SDS011;559;48.628;8.924;2022-12-18T14:09:03;56.33;;;46.47;;
1140;SDS011;559;48.628;8.924;2022-12-18T14:11:30;50.30;;;45.28;;
1140;SDS011;559;48.628;8.924;2022-12-18T14:13:56;53.90;;;49.38;;
1140;SDS011;559;48.628;8.924;2022-12-18T14:16:23;50.28;;;45.63;;
1140;SDS011;559;48.628;8.924;2022-12-18T14:18:53;67.70;;;62.40;;
1140;SDS011;559;48.628;8.924;2022-12-18T14:21:21;69.53;;;63.80;;
1140;SDS011;559;48.628;8.924;2022-12-18T14:23:48;69.70;;;64.65;;
1140;SDS011;559;48.628;8.924;2022-12-18T14:26:21;72.55;;;66.93;;
1140;SDS011;559;48.628;8.924;2022-12-18T14:28:52;72.05;;;66.32;;
1140;SDS011;559;48.628;8.924;2022-12-18T14:31:19;74.53;;;66.63;;
1140;SDS011;559;48.628;8.924;2022-12-18T14:33:47;73.57;;;67.80;;
1140;SDS011;559;48.628;8.924;2022-12-18T14:36:15;66.35;;;60.70;;
1140;SDS011;559;48.628;8.924;2022-12-18T14:38:43;75.25;;;69.10;;
1140;SDS011;559;48.628;8.924;2022-12-18T14:41:10;74.80;;;68.43;;
1140;SDS011;559;48.628;8.924;2022-12-18T14:43:39;71.57;;;65.28;;
1140;SDS011;559;48.628;8.924;2022-12-18T14:46:24;75.97;;;69.18;;
1140;SDS011;559;48.628;8.924;2022-12-18T14:48:53;81.07;;;73.88;;
1140;SDS011;559;48.628;8.924;2022-12-18T14:51:20;74.75;;;68.45;;
1140;SDS011;559;48.628;8.924;2022-12-18T14:53:48;69.47;;;64.10;;
1140;SDS011;559;48.628;8.924;2022-12-18T14:56:19;74.15;;;67.88;;
1140;SDS011;559;48.628;8.924;2022-12-18T14:58:49;70.20;;;64.47;;
1140;SDS011;559;48.628;8.924;2022-12-18T15:01:27;77.22;;;70.28;;
1140;SDS011;559;48.628;8.924;2022-12-18T15:03:55;77.40;;;71.85;;
1140;SDS011;559;48.628;8.924;2022-12-18T15:06:24;84.53;;;77.95;;
1140;SDS011;559;48.628;8.924;2022-12-18T15:08:53;82.75;;;76.45;;
1140;SDS011;559;48.628;8.924;2022-12-18T15:11:27;91.80;;;84.82;;
1140;SDS011;559;48.628;8.924;2022-12-18T15:13:58;92.82;;;85.20;;
1140;SDS011;559;48.628;8.924;2022-12-18T15:16:25;91.40;;;82.00;;
1140;SDS011;559;48.628;8.924;2022-12-18T15:18:52;105.65;;;94.90;;
1140;SDS011;559;48.628;8.924;2022-12-18T15:21:19;88.03;;;79.95;;